Take Maru No82 — JI3650 — position and weather

sailwx.info

Track history (hours):
 
Tides and Currents Weather Stations Pressure Air Temp Water Temp Dewpoint Dewpoint Depression Visibility Wind Speed Wind Dir Waves Ship Positions

Take Maru No82

Last reported at 2018-Jan-24 11:00 UTC. Time now 2018-Jan-24 11:11 UTC.
Position N 35°27' E 139°40'.

Length 42 m; draft 4 m.

Type: Tug. MMSI: 431300812.

Date/timePositionNaut miles runAvg speedWind from/ knotsBaromVisibWave heightAir tempDewpointWater temp
2018-Jan-24 11:00N 35°27' E 139°40'0 0.0
2018-Jan-24 10:30N 35°27' E 139°40'0 0.0
2018-Jan-24 10:01N 35°27' E 139°40'0 0.0
2018-Jan-24 09:30N 35°27' E 139°40'0 0.0
2018-Jan-24 09:00N 35°27' E 139°40'0 0.0
2018-Jan-24 08:31N 35°27' E 139°40'0 0.0
2018-Jan-24 08:00N 35°27' E 139°40'0 0.0
2018-Jan-24 07:31N 35°27' E 139°40'0 0.0
2018-Jan-24 07:01N 35°27' E 139°40'2 3.3
2018-Jan-24 06:31N 35°27' E 139°42'611.5
2018-Jan-24 06:00N 35°21' E 139°41'4 7.7
2018-Jan-24 05:30N 35°18' E 139°38'2 3.8
2018-Jan-24 05:00N 35°19' E 139°40'3 6.5
2018-Jan-24 04:30N 35°22' E 139°42'4 8.1
2018-Jan-24 04:00N 35°26' E 139°44'4 7.9
2018-Jan-24 03:30N 35°28' E 139°48'8 7.8
2018-Jan-24 02:25N 35°32' E 139°57'3 7.5
2018-Jan-24 01:59N 35°33' E 140°01'3 6.2
2018-Jan-24 01:30N 35°33' E 140°05'1 1.1
2018-Jan-24 01:01N 35°33' E 140°05'0 0.0
2018-Jan-24 00:30N 35°33' E 140°05'0 0.2
2018-Jan-24 00:00N 35°33' E 140°05'2 3.3
2018-Jan-23 23:30N 35°34' E 140°03'611.7
2018-Jan-23 22:59N 35°31' E 139°56'612.0
2018-Jan-23 22:29N 35°28' E 139°50'612.3
2018-Jan-23 22:01N 35°27' E 139°43'3 5.7
2018-Jan-23 21:31N 35°27' E 139°40'0 0.0
2018-Jan-23 21:01N 35°27' E 139°40'0 0.0
2018-Jan-23 20:30N 35°27' E 139°40'0 0.0
2018-Jan-23 20:00N 35°27' E 139°40'0 0.0
2018-Jan-23 19:31N 35°27' E 139°40'0 0.0
2018-Jan-23 19:00N 35°27' E 139°40'0 0.0
2018-Jan-23 18:30N 35°27' E 139°40'0 0.0
2018-Jan-23 18:00N 35°27' E 139°40'0 0.0
2018-Jan-23 17:31N 35°27' E 139°40'0 0.0
2018-Jan-23 17:00N 35°27' E 139°40'0 0.0
2018-Jan-23 16:31N 35°27' E 139°40'0 0.0
2018-Jan-23 16:00N 35°27' E 139°40'0 0.0
2018-Jan-23 15:30N 35°27' E 139°40'0 0.0
2018-Jan-23 15:00N 35°27' E 139°40'0 0.0
2018-Jan-23 14:30N 35°27' E 139°40'0 0.0
2018-Jan-23 14:01N 35°27' E 139°40'0 0.0
2018-Jan-23 13:30N 35°27' E 139°40'0 0.0
2018-Jan-23 13:00N 35°27' E 139°40'0 0.0
2018-Jan-23 12:30N 35°27' E 139°40'0 0.0
2018-Jan-23 12:00N 35°27' E 139°40'0 0.0
2018-Jan-23 11:31N 35°27' E 139°40'0 0.0
2018-Jan-23 11:00N 35°27' E 139°40'0 0.0
2018-Jan-23 10:30N 35°27' E 139°40'0 0.0
2018-Jan-23 10:01N 35°27' E 139°40'0 0.0
2018-Jan-23 09:31N 35°27' E 139°40'0 0.0
2018-Jan-23 09:00N 35°27' E 139°40'0 0.0
2018-Jan-23 08:30N 35°27' E 139°40'0 0.0
2018-Jan-23 08:00N 35°27' E 139°40'0 0.0
2018-Jan-23 07:31N 35°27' E 139°40'0 0.0
2018-Jan-23 07:01N 35°27' E 139°40'0 0.0
2018-Jan-23 06:31N 35°27' E 139°40'0 0.0
2018-Jan-23 06:01N 35°27' E 139°40'0 0.0
2018-Jan-23 05:30N 35°27' E 139°40'0 0.0
2018-Jan-23 05:00N 35°27' E 139°40'0 0.0
2018-Jan-23 04:30N 35°27' E 139°40'0 0.0
2018-Jan-23 04:00N 35°27' E 139°40'0 0.0
2018-Jan-23 03:31N 35°27' E 139°40'0 0.0
2018-Jan-23 03:01N 35°27' E 139°40'0 0.0
2018-Jan-23 02:30N 35°27' E 139°40'0 0.0
2018-Jan-23 02:01N 35°27' E 139°40'0 0.0
2018-Jan-23 01:30N 35°27' E 139°40'0 0.0
2018-Jan-23 01:01N 35°27' E 139°40'0 0.0
2018-Jan-23 00:30N 35°27' E 139°40'0 0.0
2018-Jan-23 00:00N 35°27' E 139°40'0 0.0
2018-Jan-22 23:31N 35°27' E 139°40'0 0.0
2018-Jan-22 23:01N 35°27' E 139°40'0 0.0
2018-Jan-22 22:30N 35°27' E 139°40'0 0.0
2018-Jan-22 22:00N 35°27' E 139°40'0 0.0
2018-Jan-22 21:31N 35°27' E 139°40'0 0.0
2018-Jan-22 21:01N 35°27' E 139°40'0 0.0
2018-Jan-22 20:30N 35°27' E 139°40'0 0.0
2018-Jan-22 20:00N 35°27' E 139°40'0 0.0
2018-Jan-22 19:31N 35°27' E 139°40'0 0.0
2018-Jan-22 19:00N 35°27' E 139°40'0 0.0
2018-Jan-22 18:30N 35°27' E 139°40'0 0.0
2018-Jan-22 18:01N 35°27' E 139°40'0 0.0
2018-Jan-22 17:31N 35°27' E 139°40'0 0.0
2018-Jan-22 17:00N 35°27' E 139°40'0 0.0
2018-Jan-22 16:31N 35°27' E 139°40'0 0.0
2018-Jan-22 16:01N 35°27' E 139°40'0 0.0
2018-Jan-22 15:30N 35°27' E 139°40'0 0.0
2018-Jan-22 15:01N 35°27' E 139°40'0 0.0
2018-Jan-22 14:30N 35°27' E 139°40'0 0.0
2018-Jan-22 14:01N 35°27' E 139°40'0 0.0
2018-Jan-22 13:31N 35°27' E 139°40'0 0.0
2018-Jan-22 13:01N 35°27' E 139°40'0 0.0
2018-Jan-22 12:30N 35°27' E 139°40'0 0.0
2018-Jan-22 12:00N 35°27' E 139°40'0 0.0
2018-Jan-22 11:30N 35°27' E 139°40'0 0.0
2018-Jan-22 11:01N 35°27' E 139°40'0 0.0
2018-Jan-22 10:30N 35°27' E 139°40'0 0.0
2018-Jan-22 10:00N 35°27' E 139°40'0 0.0
2018-Jan-22 09:31N 35°27' E 139°40'0 0.0
2018-Jan-22 09:00N 35°27' E 139°40'0 0.0
2018-Jan-22 08:31N 35°27' E 139°40'0 0.0
2018-Jan-22 08:01N 35°27' E 139°40'0 0.0
2018-Jan-22 07:31N 35°27' E 139°40'0 0.0
2018-Jan-22 07:01N 35°27' E 139°40'0 0.0
2018-Jan-22 06:31N 35°27' E 139°40'0 0.0
2018-Jan-22 06:01N 35°27' E 139°40'0 0.0
2018-Jan-22 05:30N 35°27' E 139°40'0 0.0
2018-Jan-22 05:00N 35°27' E 139°40'0 0.0
2018-Jan-22 04:30N 35°27' E 139°40'0 0.0
2018-Jan-22 04:01N 35°27' E 139°40'0 0.0
2018-Jan-22 03:31N 35°27' E 139°40'0 0.0
2018-Jan-22 03:01N 35°27' E 139°40'0 0.0
2018-Jan-22 02:30N 35°27' E 139°40'0 0.0
2018-Jan-22 02:00N 35°27' E 139°40'0 0.0
2018-Jan-22 01:30N 35°27' E 139°40'0 0.0
2018-Jan-22 01:00N 35°27' E 139°40'0 0.0
2018-Jan-22 00:30N 35°27' E 139°40'0 0.0
2018-Jan-22 00:00N 35°27' E 139°40'0 0.0
2018-Jan-21 23:30N 35°27' E 139°40'0 0.0
2018-Jan-21 23:01N 35°27' E 139°40'0 0.0
2018-Jan-21 22:31N 35°27' E 139°40'0 0.0
2018-Jan-21 22:01N 35°27' E 139°40'0 0.0
2018-Jan-21 21:30N 35°27' E 139°40'0 0.0
2018-Jan-21 21:00N 35°27' E 139°40'0 0.0
2018-Jan-21 20:30N 35°27' E 139°40'0 0.0
2018-Jan-21 20:01N 35°27' E 139°40'0 0.0
2018-Jan-21 19:31N 35°27' E 139°40'0 0.0
2018-Jan-21 19:01N 35°27' E 139°40'0 0.0
2018-Jan-21 18:30N 35°27' E 139°40'0 0.0
2018-Jan-21 18:00N 35°27' E 139°40'0 0.0
2018-Jan-21 17:31N 35°27' E 139°40'0 0.0
2018-Jan-21 17:01N 35°27' E 139°40'0 0.0
2018-Jan-21 16:31N 35°27' E 139°40'0 0.0
2018-Jan-21 16:01N 35°27' E 139°40'0 0.0
2018-Jan-21 15:31N 35°27' E 139°40'0 0.0
2018-Jan-21 15:00N 35°27' E 139°40'0 0.0
2018-Jan-21 14:31N 35°27' E 139°40'0 0.0
2018-Jan-21 14:01N 35°27' E 139°40'0 0.0
2018-Jan-21 13:30N 35°27' E 139°40'0 0.0
2018-Jan-21 13:00N 35°27' E 139°40'0 0.0
2018-Jan-21 12:30N 35°27' E 139°40'0 0.0
2018-Jan-21 12:00N 35°27' E 139°40'0 0.0
2018-Jan-21 11:30N 35°27' E 139°40'0 0.0
2018-Jan-21 11:01N 35°27' E 139°40'0 0.0
2018-Jan-21 10:31N 35°27' E 139°40'0 0.0
2018-Jan-21 10:00N 35°27' E 139°40'0 0.0
2018-Jan-21 09:30N 35°27' E 139°40'0 0.0
2018-Jan-21 09:01N 35°27' E 139°40'0 0.0
2018-Jan-21 08:31N 35°27' E 139°40'0 0.0
2018-Jan-21 08:01N 35°27' E 139°40'0 0.0
2018-Jan-21 07:30N 35°27' E 139°40'0 0.0
2018-Jan-21 07:00N 35°27' E 139°40'0 0.0
2018-Jan-21 06:30N 35°27' E 139°40'0 0.0
2018-Jan-21 06:00N 35°27' E 139°40'0 0.0
2018-Jan-21 05:31N 35°27' E 139°40'0 0.0
2018-Jan-21 05:01N 35°27' E 139°40'0 0.0
2018-Jan-21 04:30N 35°27' E 139°40'0 0.3
2018-Jan-21 04:01N 35°27' E 139°40'1 1.1
2018-Jan-21 03:31N 35°27' E 139°40'3 6.0
2018-Jan-21 03:01N 35°25' E 139°42'3 5.8
2018-Jan-21 02:30N 35°22' E 139°41'3 6.1
2018-Jan-21 02:01N 35°19' E 139°41'1 1.4
2018-Jan-21 01:30N 35°19' E 139°40'0 0.0
2018-Jan-21 01:00N 35°19' E 139°40'0 0.0
2018-Jan-21 00:30N 35°19' E 139°40'0 0.0
2018-Jan-21 00:00N 35°19' E 139°40'0 0.0
2018-Jan-20 23:31N 35°19' E 139°40'0 0.0
2018-Jan-20 23:00N 35°19' E 139°40'0 0.0
2018-Jan-20 22:31N 35°19' E 139°40'0 0.0
2018-Jan-20 22:01N 35°19' E 139°40'0 0.0
2018-Jan-20 21:30N 35°19' E 139°40'0 0.0
2018-Jan-20 21:01N 35°19' E 139°40'0 0.0
2018-Jan-20 20:31N 35°19' E 139°40'0 0.0
2018-Jan-20 20:01N 35°19' E 139°40'0 0.0
2018-Jan-20 19:30N 35°19' E 139°40'0 0.0
2018-Jan-20 19:00N 35°19' E 139°40'0 0.0
2018-Jan-20 18:31N 35°19' E 139°40'0 0.0
2018-Jan-20 18:01N 35°19' E 139°40'0 0.0
2018-Jan-20 17:31N 35°19' E 139°40'0 0.0
2018-Jan-20 17:01N 35°19' E 139°40'0 0.0
2018-Jan-20 16:30N 35°19' E 139°40'0 0.0
2018-Jan-20 16:00N 35°19' E 139°40'0 0.0
2018-Jan-20 15:31N 35°19' E 139°40'0 0.0
2018-Jan-20 15:01N 35°19' E 139°40'0 0.0
2018-Jan-20 14:31N 35°19' E 139°40'0 0.0
2018-Jan-20 14:01N 35°19' E 139°40'0 0.0
2018-Jan-20 13:30N 35°19' E 139°40'0 0.0
2018-Jan-20 13:00N 35°19' E 139°40'0 0.0
2018-Jan-20 12:30N 35°19' E 139°40'0 0.0
2018-Jan-20 12:00N 35°19' E 139°40'3 6.0
2018-Jan-20 11:31N 35°19' E 139°44'3 6.3
2018-Jan-20 11:01N 35°16' E 139°46'3 6.6
2018-Jan-20 10:30N 35°13' E 139°47'3 5.9
2018-Jan-20 10:00N 35°10' E 139°47'3 5.5
2018-Jan-20 09:29N 35°07' E 139°46'3 6.0
2018-Jan-20 09:00N 35°04' E 139°45'3 5.9
2018-Jan-20 08:30N 35°02' E 139°44'3 6.3
2018-Jan-20 08:00N 34°59' E 139°43'4 8.6
2018-Jan-20 07:29N 34°55' E 139°45'3 0.9
2018-Jan-20 04:07N 34°57' E 139°43'1 7.9
2018-Jan-20 04:00N 34°58' E 139°43'4 8.0
2018-Jan-20 03:30N 35°02' E 139°43'4 7.5
2018-Jan-20 03:00N 35°06' E 139°44'4 7.5
2018-Jan-20 02:30N 35°09' E 139°45'3 6.5
2018-Jan-20 02:00N 35°12' E 139°46'4 7.8
2018-Jan-20 01:30N 35°16' E 139°46'4 8.2
2018-Jan-20 01:00N 35°20' E 139°43'2 4.3
2018-Jan-20 00:30N 35°20' E 139°40'0 0.7
2018-Jan-20 00:00N 35°20' E 139°40'0 0.1
2018-Jan-19 23:30N 35°20' E 139°40'0 0.0
2018-Jan-19 23:01N 35°20' E 139°40'0 0.0
2018-Jan-19 22:31N 35°20' E 139°40'0 0.0
2018-Jan-19 22:00N 35°20' E 139°40'0 0.0
2018-Jan-19 21:30N 35°20' E 139°40'0 0.0
2018-Jan-19 21:01N 35°20' E 139°40'0 0.0
2018-Jan-19 20:30N 35°20' E 139°40'0 0.0
2018-Jan-19 20:00N 35°20' E 139°40'0 0.0
2018-Jan-19 19:30N 35°20' E 139°40'0 0.0
2018-Jan-19 19:00N 35°20' E 139°40'0 0.0
2018-Jan-19 18:31N 35°20' E 139°40'0 0.0
2018-Jan-19 18:00N 35°20' E 139°40'0 0.0
2018-Jan-19 17:31N 35°20' E 139°40'0 0.1
2018-Jan-19 17:00N 35°20' E 139°40'0 0.1
2018-Jan-19 16:30N 35°20' E 139°40'0 0.0
2018-Jan-19 16:01N 35°20' E 139°40'0 0.0
2018-Jan-19 15:31N 35°20' E 139°40'0 0.0
2018-Jan-19 15:00N 35°20' E 139°40'0 0.0
2018-Jan-19 14:30N 35°20' E 139°40'0 0.0
2018-Jan-19 14:00N 35°20' E 139°40'0 0.0
2018-Jan-19 13:30N 35°20' E 139°40'0 0.0
2018-Jan-19 13:00N 35°20' E 139°40'0 0.0
2018-Jan-19 12:30N 35°20' E 139°40'0 0.0
2018-Jan-19 12:00N 35°20' E 139°40'0 0.0
2018-Jan-19 11:31N 35°20' E 139°40'0 0.0
2018-Jan-19 11:01N 35°20' E 139°40'0 0.0
2018-Jan-19 10:31N 35°20' E 139°40'0 0.0
2018-Jan-19 10:00N 35°20' E 139°40'0 0.0
2018-Jan-19 09:31N 35°20' E 139°40'0 0.0
2018-Jan-19 09:01N 35°20' E 139°40'0 0.0
2018-Jan-19 08:30N 35°20' E 139°40'0 0.0
2018-Jan-19 08:01N 35°20' E 139°40'0 0.0
2018-Jan-19 07:30N 35°20' E 139°40'0 0.0
2018-Jan-19 07:01N 35°20' E 139°40'0 0.0
2018-Jan-19 06:31N 35°20' E 139°40'0 0.0
2018-Jan-19 06:01N 35°20' E 139°40'0 0.0
2018-Jan-19 05:31N 35°20' E 139°40'0 0.1
2018-Jan-19 05:00N 35°20' E 139°40'0 0.1
2018-Jan-19 04:31N 35°20' E 139°40'0 0.0
2018-Jan-19 04:00N 35°20' E 139°40'0 0.0
2018-Jan-19 03:30N 35°20' E 139°40'0 0.0
2018-Jan-19 03:01N 35°20' E 139°40'0 0.0
2018-Jan-19 02:30N 35°20' E 139°40'0 0.0
2018-Jan-19 02:01N 35°20' E 139°40'0 0.0
2018-Jan-19 01:31N 35°20' E 139°40'0 0.0
2018-Jan-19 01:01N 35°20' E 139°40'0 0.0
2018-Jan-19 00:30N 35°20' E 139°40'0 0.2
2018-Jan-19 00:01N 35°20' E 139°40'1 3.0
2018-Jan-18 23:30N 35°19' E 139°40'0 0.9
2018-Jan-18 23:00N 35°19' E 139°40'0 0.0
2018-Jan-18 22:30N 35°19' E 139°40'0 0.0
2018-Jan-18 22:00N 35°19' E 139°40'0 0.0
2018-Jan-18 21:30N 35°19' E 139°40'0 0.0
2018-Jan-18 21:00N 35°19' E 139°40'0 0.0
2018-Jan-18 20:31N 35°19' E 139°40'0 0.0
2018-Jan-18 20:01N 35°19' E 139°40'0 0.0
2018-Jan-18 19:30N 35°19' E 139°40'0 0.0
2018-Jan-18 19:00N 35°19' E 139°40'0 0.0
2018-Jan-18 18:30N 35°19' E 139°40'0 0.1
2018-Jan-18 18:00N 35°19' E 139°40'0 0.0
2018-Jan-18 17:31N 35°19' E 139°40'0 0.0
2018-Jan-18 17:01N 35°19' E 139°40'0 0.0
2018-Jan-18 16:30N 35°19' E 139°40'0 0.1
2018-Jan-18 16:01N 35°19' E 139°40'0 0.1
2018-Jan-18 15:31N 35°19' E 139°40'0 0.0
2018-Jan-18 15:00N 35°19' E 139°40'0 0.0
2018-Jan-18 14:30N 35°19' E 139°40'0 0.1
2018-Jan-18 14:01N 35°19' E 139°40'0 0.0
2018-Jan-18 13:30N 35°19' E 139°40'0 0.0
2018-Jan-18 13:00N 35°19' E 139°40'0 0.0
2018-Jan-18 12:30N 35°19' E 139°40'0 0.0
2018-Jan-18 12:00N 35°19' E 139°40'0 0.0
2018-Jan-18 11:30N 35°19' E 139°40'0 0.0
2018-Jan-18 11:00N 35°19' E 139°40'0 0.0
2018-Jan-18 10:30N 35°19' E 139°40'0 0.0
2018-Jan-18 10:00N 35°19' E 139°40'0 0.0
2018-Jan-18 09:30N 35°19' E 139°40'0 0.0
2018-Jan-18 09:00N 35°19' E 139°40'0 0.1
2018-Jan-18 08:30N 35°19' E 139°40'0 0.0
2018-Jan-18 08:00N 35°19' E 139°40'0 0.0
2018-Jan-18 07:30N 35°19' E 139°40'0 0.0
2018-Jan-18 06:59N 35°19' E 139°40'0 0.0
2018-Jan-18 06:30N 35°19' E 139°40'1 1.1
2018-Jan-18 06:01N 35°19' E 139°39'0 0.3
2018-Jan-18 05:30N 35°19' E 139°39'0 0.6
2018-Jan-18 05:00N 35°19' E 139°40'0 0.2
2018-Jan-18 04:31N 35°19' E 139°40'2 4.3
2018-Jan-18 04:00N 35°21' E 139°41'3 6.9
2018-Jan-18 03:30N 35°24' E 139°42'3 6.5
2018-Jan-18 03:01N 35°27' E 139°40'1 1.3
2018-Jan-18 02:31N 35°27' E 139°40'0 0.1
2018-Jan-18 02:00N 35°27' E 139°40'0 0.0
2018-Jan-18 01:30N 35°27' E 139°40'0 0.0
2018-Jan-18 01:01N 35°27' E 139°40'0 0.0
2018-Jan-18 00:01N 35°27' E 139°40'0 0.1
2018-Jan-17 23:58N 35°27' E 139°40'  
Track history (hours):
 
Tides and Currents Weather Stations Pressure Air Temp Water Temp Dewpoint Dewpoint Depression Visibility Wind Speed Wind Dir Waves Ship Positions

Take Maru No82

Last reported at 2018-Jan-24 11:00 UTC. Time now 2018-Jan-24 11:11 UTC.
Position N 35°27' E 139°40'.

Length 42 m; draft 4 m.

Type: Tug. MMSI: 431300812.

Date/timePositionNaut miles runAvg speedWind from/ knotsBaromVisibWave heightAir tempDewpointWater temp
2018-Jan-24 11:00N 35°27' E 139°40'0 0.0
2018-Jan-24 10:30N 35°27' E 139°40'0 0.0
2018-Jan-24 10:01N 35°27' E 139°40'0 0.0
2018-Jan-24 09:30N 35°27' E 139°40'0 0.0
2018-Jan-24 09:00N 35°27' E 139°40'0 0.0
2018-Jan-24 08:31N 35°27' E 139°40'0 0.0
2018-Jan-24 08:00N 35°27' E 139°40'0 0.0
2018-Jan-24 07:31N 35°27' E 139°40'0 0.0
2018-Jan-24 07:01N 35°27' E 139°40'2 3.3
2018-Jan-24 06:31N 35°27' E 139°42'611.5
2018-Jan-24 06:00N 35°21' E 139°41'4 7.7
2018-Jan-24 05:30N 35°18' E 139°38'2 3.8
2018-Jan-24 05:00N 35°19' E 139°40'3 6.5
2018-Jan-24 04:30N 35°22' E 139°42'4 8.1
2018-Jan-24 04:00N 35°26' E 139°44'4 7.9
2018-Jan-24 03:30N 35°28' E 139°48'8 7.8
2018-Jan-24 02:25N 35°32' E 139°57'3 7.5
2018-Jan-24 01:59N 35°33' E 140°01'3 6.2
2018-Jan-24 01:30N 35°33' E 140°05'1 1.1
2018-Jan-24 01:01N 35°33' E 140°05'0 0.0
2018-Jan-24 00:30N 35°33' E 140°05'0 0.2
2018-Jan-24 00:00N 35°33' E 140°05'2 3.3
2018-Jan-23 23:30N 35°34' E 140°03'611.7
2018-Jan-23 22:59N 35°31' E 139°56'612.0
2018-Jan-23 22:29N 35°28' E 139°50'612.3
2018-Jan-23 22:01N 35°27' E 139°43'3 5.7
2018-Jan-23 21:31N 35°27' E 139°40'0 0.0
2018-Jan-23 21:01N 35°27' E 139°40'0 0.0
2018-Jan-23 20:30N 35°27' E 139°40'0 0.0
2018-Jan-23 20:00N 35°27' E 139°40'0 0.0
2018-Jan-23 19:31N 35°27' E 139°40'0 0.0
2018-Jan-23 19:00N 35°27' E 139°40'0 0.0
2018-Jan-23 18:30N 35°27' E 139°40'0 0.0
2018-Jan-23 18:00N 35°27' E 139°40'0 0.0
2018-Jan-23 17:31N 35°27' E 139°40'0 0.0
2018-Jan-23 17:00N 35°27' E 139°40'0 0.0
2018-Jan-23 16:31N 35°27' E 139°40'0 0.0
2018-Jan-23 16:00N 35°27' E 139°40'0 0.0
2018-Jan-23 15:30N 35°27' E 139°40'0 0.0
2018-Jan-23 15:00N 35°27' E 139°40'0 0.0
2018-Jan-23 14:30N 35°27' E 139°40'0 0.0
2018-Jan-23 14:01N 35°27' E 139°40'0 0.0
2018-Jan-23 13:30N 35°27' E 139°40'0 0.0
2018-Jan-23 13:00N 35°27' E 139°40'0 0.0
2018-Jan-23 12:30N 35°27' E 139°40'0 0.0
2018-Jan-23 12:00N 35°27' E 139°40'0 0.0
2018-Jan-23 11:31N 35°27' E 139°40'0 0.0
2018-Jan-23 11:00N 35°27' E 139°40'0 0.0
2018-Jan-23 10:30N 35°27' E 139°40'0 0.0
2018-Jan-23 10:01N 35°27' E 139°40'0 0.0
2018-Jan-23 09:31N 35°27' E 139°40'0 0.0
2018-Jan-23 09:00N 35°27' E 139°40'0 0.0
2018-Jan-23 08:30N 35°27' E 139°40'0 0.0
2018-Jan-23 08:00N 35°27' E 139°40'0 0.0
2018-Jan-23 07:31N 35°27' E 139°40'0 0.0
2018-Jan-23 07:01N 35°27' E 139°40'0 0.0
2018-Jan-23 06:31N 35°27' E 139°40'0 0.0
2018-Jan-23 06:01N 35°27' E 139°40'0 0.0
2018-Jan-23 05:30N 35°27' E 139°40'0 0.0
2018-Jan-23 05:00N 35°27' E 139°40'0 0.0
2018-Jan-23 04:30N 35°27' E 139°40'0 0.0
2018-Jan-23 04:00N 35°27' E 139°40'0 0.0
2018-Jan-23 03:31N 35°27' E 139°40'0 0.0
2018-Jan-23 03:01N 35°27' E 139°40'0 0.0
2018-Jan-23 02:30N 35°27' E 139°40'0 0.0
2018-Jan-23 02:01N 35°27' E 139°40'0 0.0
2018-Jan-23 01:30N 35°27' E 139°40'0 0.0
2018-Jan-23 01:01N 35°27' E 139°40'0 0.0
2018-Jan-23 00:30N 35°27' E 139°40'0 0.0
2018-Jan-23 00:00N 35°27' E 139°40'0 0.0
2018-Jan-22 23:31N 35°27' E 139°40'0 0.0
2018-Jan-22 23:01N 35°27' E 139°40'0 0.0
2018-Jan-22 22:30N 35°27' E 139°40'0 0.0
2018-Jan-22 22:00N 35°27' E 139°40'0 0.0
2018-Jan-22 21:31N 35°27' E 139°40'0 0.0
2018-Jan-22 21:01N 35°27' E 139°40'0 0.0
2018-Jan-22 20:30N 35°27' E 139°40'0 0.0
2018-Jan-22 20:00N 35°27' E 139°40'0 0.0
2018-Jan-22 19:31N 35°27' E 139°40'0 0.0
2018-Jan-22 19:00N 35°27' E 139°40'0 0.0
2018-Jan-22 18:30N 35°27' E 139°40'0 0.0
2018-Jan-22 18:01N 35°27' E 139°40'0 0.0
2018-Jan-22 17:31N 35°27' E 139°40'0 0.0
2018-Jan-22 17:00N 35°27' E 139°40'0 0.0
2018-Jan-22 16:31N 35°27' E 139°40'0 0.0
2018-Jan-22 16:01N 35°27' E 139°40'0 0.0
2018-Jan-22 15:30N 35°27' E 139°40'0 0.0
2018-Jan-22 15:01N 35°27' E 139°40'0 0.0
2018-Jan-22 14:30N 35°27' E 139°40'0 0.0
2018-Jan-22 14:01N 35°27' E 139°40'0 0.0
2018-Jan-22 13:31N 35°27' E 139°40'0 0.0
2018-Jan-22 13:01N 35°27' E 139°40'0 0.0
2018-Jan-22 12:30N 35°27' E 139°40'0 0.0
2018-Jan-22 12:00N 35°27' E 139°40'0 0.0
2018-Jan-22 11:30N 35°27' E 139°40'0 0.0
2018-Jan-22 11:01N 35°27' E 139°40'0 0.0
2018-Jan-22 10:30N 35°27' E 139°40'0 0.0
2018-Jan-22 10:00N 35°27' E 139°40'0 0.0
2018-Jan-22 09:31N 35°27' E 139°40'0 0.0
2018-Jan-22 09:00N 35°27' E 139°40'0 0.0
2018-Jan-22 08:31N 35°27' E 139°40'0 0.0
2018-Jan-22 08:01N 35°27' E 139°40'0 0.0
2018-Jan-22 07:31N 35°27' E 139°40'0 0.0
2018-Jan-22 07:01N 35°27' E 139°40'0 0.0
2018-Jan-22 06:31N 35°27' E 139°40'0 0.0
2018-Jan-22 06:01N 35°27' E 139°40'0 0.0
2018-Jan-22 05:30N 35°27' E 139°40'0 0.0
2018-Jan-22 05:00N 35°27' E 139°40'0 0.0
2018-Jan-22 04:30N 35°27' E 139°40'0 0.0
2018-Jan-22 04:01N 35°27' E 139°40'0 0.0
2018-Jan-22 03:31N 35°27' E 139°40'0 0.0
2018-Jan-22 03:01N 35°27' E 139°40'0 0.0
2018-Jan-22 02:30N 35°27' E 139°40'0 0.0
2018-Jan-22 02:00N 35°27' E 139°40'0 0.0
2018-Jan-22 01:30N 35°27' E 139°40'0 0.0
2018-Jan-22 01:00N 35°27' E 139°40'0 0.0
2018-Jan-22 00:30N 35°27' E 139°40'0 0.0
2018-Jan-22 00:00N 35°27' E 139°40'0 0.0
2018-Jan-21 23:30N 35°27' E 139°40'0 0.0
2018-Jan-21 23:01N 35°27' E 139°40'0 0.0
2018-Jan-21 22:31N 35°27' E 139°40'0 0.0
2018-Jan-21 22:01N 35°27' E 139°40'0 0.0
2018-Jan-21 21:30N 35°27' E 139°40'0 0.0
2018-Jan-21 21:00N 35°27' E 139°40'0 0.0
2018-Jan-21 20:30N 35°27' E 139°40'0 0.0
2018-Jan-21 20:01N 35°27' E 139°40'0 0.0
2018-Jan-21 19:31N 35°27' E 139°40'0 0.0
2018-Jan-21 19:01N 35°27' E 139°40'0 0.0
2018-Jan-21 18:30N 35°27' E 139°40'0 0.0
2018-Jan-21 18:00N 35°27' E 139°40'0 0.0
2018-Jan-21 17:31N 35°27' E 139°40'0 0.0
2018-Jan-21 17:01N 35°27' E 139°40'0 0.0
2018-Jan-21 16:31N 35°27' E 139°40'0 0.0
2018-Jan-21 16:01N 35°27' E 139°40'0 0.0
2018-Jan-21 15:31N 35°27' E 139°40'0 0.0
2018-Jan-21 15:00N 35°27' E 139°40'0 0.0
2018-Jan-21 14:31N 35°27' E 139°40'0 0.0
2018-Jan-21 14:01N 35°27' E 139°40'0 0.0
2018-Jan-21 13:30N 35°27' E 139°40'0 0.0
2018-Jan-21 13:00N 35°27' E 139°40'0 0.0
2018-Jan-21 12:30N 35°27' E 139°40'0 0.0
2018-Jan-21 12:00N 35°27' E 139°40'0 0.0
2018-Jan-21 11:30N 35°27' E 139°40'0 0.0
2018-Jan-21 11:01N 35°27' E 139°40'0 0.0
2018-Jan-21 10:31N 35°27' E 139°40'0 0.0
2018-Jan-21 10:00N 35°27' E 139°40'0 0.0
2018-Jan-21 09:30N 35°27' E 139°40'0 0.0
2018-Jan-21 09:01N 35°27' E 139°40'0 0.0
2018-Jan-21 08:31N 35°27' E 139°40'0 0.0
2018-Jan-21 08:01N 35°27' E 139°40'0 0.0
2018-Jan-21 07:30N 35°27' E 139°40'0 0.0
2018-Jan-21 07:00N 35°27' E 139°40'0 0.0
2018-Jan-21 06:30N 35°27' E 139°40'0 0.0
2018-Jan-21 06:00N 35°27' E 139°40'0 0.0
2018-Jan-21 05:31N 35°27' E 139°40'0 0.0
2018-Jan-21 05:01N 35°27' E 139°40'0 0.0
2018-Jan-21 04:30N 35°27' E 139°40'0 0.3
2018-Jan-21 04:01N 35°27' E 139°40'1 1.1
2018-Jan-21 03:31N 35°27' E 139°40'3 6.0
2018-Jan-21 03:01N 35°25' E 139°42'3 5.8
2018-Jan-21 02:30N 35°22' E 139°41'3 6.1
2018-Jan-21 02:01N 35°19' E 139°41'1 1.4
2018-Jan-21 01:30N 35°19' E 139°40'0 0.0
2018-Jan-21 01:00N 35°19' E 139°40'0 0.0
2018-Jan-21 00:30N 35°19' E 139°40'0 0.0
2018-Jan-21 00:00N 35°19' E 139°40'0 0.0
2018-Jan-20 23:31N 35°19' E 139°40'0 0.0
2018-Jan-20 23:00N 35°19' E 139°40'0 0.0
2018-Jan-20 22:31N 35°19' E 139°40'0 0.0
2018-Jan-20 22:01N 35°19' E 139°40'0 0.0
2018-Jan-20 21:30N 35°19' E 139°40'0 0.0
2018-Jan-20 21:01N 35°19' E 139°40'0 0.0
2018-Jan-20 20:31N 35°19' E 139°40'0 0.0
2018-Jan-20 20:01N 35°19' E 139°40'0 0.0
2018-Jan-20 19:30N 35°19' E 139°40'0 0.0
2018-Jan-20 19:00N 35°19' E 139°40'0 0.0
2018-Jan-20 18:31N 35°19' E 139°40'0 0.0
2018-Jan-20 18:01N 35°19' E 139°40'0 0.0
2018-Jan-20 17:31N 35°19' E 139°40'0 0.0
2018-Jan-20 17:01N 35°19' E 139°40'0 0.0
2018-Jan-20 16:30N 35°19' E 139°40'0 0.0
2018-Jan-20 16:00N 35°19' E 139°40'0 0.0
2018-Jan-20 15:31N 35°19' E 139°40'0 0.0
2018-Jan-20 15:01N 35°19' E 139°40'0 0.0
2018-Jan-20 14:31N 35°19' E 139°40'0 0.0
2018-Jan-20 14:01N 35°19' E 139°40'0 0.0
2018-Jan-20 13:30N 35°19' E 139°40'0 0.0
2018-Jan-20 13:00N 35°19' E 139°40'0 0.0
2018-Jan-20 12:30N 35°19' E 139°40'0 0.0
2018-Jan-20 12:00N 35°19' E 139°40'3 6.0
2018-Jan-20 11:31N 35°19' E 139°44'3 6.3
2018-Jan-20 11:01N 35°16' E 139°46'3 6.6
2018-Jan-20 10:30N 35°13' E 139°47'3 5.9
2018-Jan-20 10:00N 35°10' E 139°47'3 5.5
2018-Jan-20 09:29N 35°07' E 139°46'3 6.0
2018-Jan-20 09:00N 35°04' E 139°45'3 5.9
2018-Jan-20 08:30N 35°02' E 139°44'3 6.3
2018-Jan-20 08:00N 34°59' E 139°43'4 8.6
2018-Jan-20 07:29N 34°55' E 139°45'3 0.9
2018-Jan-20 04:07N 34°57' E 139°43'1 7.9
2018-Jan-20 04:00N 34°58' E 139°43'4 8.0
2018-Jan-20 03:30N 35°02' E 139°43'4 7.5
2018-Jan-20 03:00N 35°06' E 139°44'4 7.5
2018-Jan-20 02:30N 35°09' E 139°45'3 6.5
2018-Jan-20 02:00N 35°12' E 139°46'4 7.8
2018-Jan-20 01:30N 35°16' E 139°46'4 8.2
2018-Jan-20 01:00N 35°20' E 139°43'2 4.3
2018-Jan-20 00:30N 35°20' E 139°40'0 0.7
2018-Jan-20 00:00N 35°20' E 139°40'0 0.1
2018-Jan-19 23:30N 35°20' E 139°40'0 0.0
2018-Jan-19 23:01N 35°20' E 139°40'0 0.0
2018-Jan-19 22:31N 35°20' E 139°40'0 0.0
2018-Jan-19 22:00N 35°20' E 139°40'0 0.0
2018-Jan-19 21:30N 35°20' E 139°40'0 0.0
2018-Jan-19 21:01N 35°20' E 139°40'0 0.0
2018-Jan-19 20:30N 35°20' E 139°40'0 0.0
2018-Jan-19 20:00N 35°20' E 139°40'0 0.0
2018-Jan-19 19:30N 35°20' E 139°40'0 0.0
2018-Jan-19 19:00N 35°20' E 139°40'0 0.0
2018-Jan-19 18:31N 35°20' E 139°40'0 0.0
2018-Jan-19 18:00N 35°20' E 139°40'0 0.0
2018-Jan-19 17:31N 35°20' E 139°40'0 0.1
2018-Jan-19 17:00N 35°20' E 139°40'0 0.1
2018-Jan-19 16:30N 35°20' E 139°40'0 0.0
2018-Jan-19 16:01N 35°20' E 139°40'0 0.0
2018-Jan-19 15:31N 35°20' E 139°40'0 0.0
2018-Jan-19 15:00N 35°20' E 139°40'0 0.0
2018-Jan-19 14:30N 35°20' E 139°40'0 0.0
2018-Jan-19 14:00N 35°20' E 139°40'0 0.0
2018-Jan-19 13:30N 35°20' E 139°40'0 0.0
2018-Jan-19 13:00N 35°20' E 139°40'0 0.0
2018-Jan-19 12:30N 35°20' E 139°40'0 0.0
2018-Jan-19 12:00N 35°20' E 139°40'0 0.0
2018-Jan-19 11:31N 35°20' E 139°40'0 0.0
2018-Jan-19 11:01N 35°20' E 139°40'0 0.0
2018-Jan-19 10:31N 35°20' E 139°40'0 0.0
2018-Jan-19 10:00N 35°20' E 139°40'0 0.0
2018-Jan-19 09:31N 35°20' E 139°40'0 0.0
2018-Jan-19 09:01N 35°20' E 139°40'0 0.0
2018-Jan-19 08:30N 35°20' E 139°40'0 0.0
2018-Jan-19 08:01N 35°20' E 139°40'0 0.0
2018-Jan-19 07:30N 35°20' E 139°40'0 0.0
2018-Jan-19 07:01N 35°20' E 139°40'0 0.0
2018-Jan-19 06:31N 35°20' E 139°40'0 0.0
2018-Jan-19 06:01N 35°20' E 139°40'0 0.0
2018-Jan-19 05:31N 35°20' E 139°40'0 0.1
2018-Jan-19 05:00N 35°20' E 139°40'0 0.1
2018-Jan-19 04:31N 35°20' E 139°40'0 0.0
2018-Jan-19 04:00N 35°20' E 139°40'0 0.0
2018-Jan-19 03:30N 35°20' E 139°40'0 0.0
2018-Jan-19 03:01N 35°20' E 139°40'0 0.0
2018-Jan-19 02:30N 35°20' E 139°40'0 0.0
2018-Jan-19 02:01N 35°20' E 139°40'0 0.0
2018-Jan-19 01:31N 35°20' E 139°40'0 0.0
2018-Jan-19 01:01N 35°20' E 139°40'0 0.0
2018-Jan-19 00:30N 35°20' E 139°40'0 0.2
2018-Jan-19 00:01N 35°20' E 139°40'1 3.0
2018-Jan-18 23:30N 35°19' E 139°40'0 0.9
2018-Jan-18 23:00N 35°19' E 139°40'0 0.0
2018-Jan-18 22:30N 35°19' E 139°40'0 0.0
2018-Jan-18 22:00N 35°19' E 139°40'0 0.0
2018-Jan-18 21:30N 35°19' E 139°40'0 0.0
2018-Jan-18 21:00N 35°19' E 139°40'0 0.0
2018-Jan-18 20:31N 35°19' E 139°40'0 0.0
2018-Jan-18 20:01N 35°19' E 139°40'0 0.0
2018-Jan-18 19:30N 35°19' E 139°40'0 0.0
2018-Jan-18 19:00N 35°19' E 139°40'0 0.0
2018-Jan-18 18:30N 35°19' E 139°40'0 0.1
2018-Jan-18 18:00N 35°19' E 139°40'0 0.0
2018-Jan-18 17:31N 35°19' E 139°40'0 0.0
2018-Jan-18 17:01N 35°19' E 139°40'0 0.0
2018-Jan-18 16:30N 35°19' E 139°40'0 0.1
2018-Jan-18 16:01N 35°19' E 139°40'0 0.1
2018-Jan-18 15:31N 35°19' E 139°40'0 0.0
2018-Jan-18 15:00N 35°19' E 139°40'0 0.0
2018-Jan-18 14:30N 35°19' E 139°40'0 0.1
2018-Jan-18 14:01N 35°19' E 139°40'0 0.0
2018-Jan-18 13:30N 35°19' E 139°40'0 0.0
2018-Jan-18 13:00N 35°19' E 139°40'0 0.0
2018-Jan-18 12:30N 35°19' E 139°40'0 0.0
2018-Jan-18 12:00N 35°19' E 139°40'0 0.0
2018-Jan-18 11:30N 35°19' E 139°40'0 0.0
2018-Jan-18 11:00N 35°19' E 139°40'0 0.0
2018-Jan-18 10:30N 35°19' E 139°40'0 0.0
2018-Jan-18 10:00N 35°19' E 139°40'0 0.0
2018-Jan-18 09:30N 35°19' E 139°40'0 0.0
2018-Jan-18 09:00N 35°19' E 139°40'0 0.1
2018-Jan-18 08:30N 35°19' E 139°40'0 0.0
2018-Jan-18 08:00N 35°19' E 139°40'0 0.0
2018-Jan-18 07:30N 35°19' E 139°40'0 0.0
2018-Jan-18 06:59N 35°19' E 139°40'0 0.0
2018-Jan-18 06:30N 35°19' E 139°40'1 1.1
2018-Jan-18 06:01N 35°19' E 139°39'0 0.3
2018-Jan-18 05:30N 35°19' E 139°39'0 0.6
2018-Jan-18 05:00N 35°19' E 139°40'0 0.2
2018-Jan-18 04:31N 35°19' E 139°40'2 4.3
2018-Jan-18 04:00N 35°21' E 139°41'3 6.9
2018-Jan-18 03:30N 35°24' E 139°42'3 6.5
2018-Jan-18 03:01N 35°27' E 139°40'1 1.3
2018-Jan-18 02:31N 35°27' E 139°40'0 0.1
2018-Jan-18 02:00N 35°27' E 139°40'0 0.0
2018-Jan-18 01:30N 35°27' E 139°40'0 0.0
2018-Jan-18 01:01N 35°27' E 139°40'0 0.0
2018-Jan-18 00:01N 35°27' E 139°40'0 0.1
2018-Jan-17 23:58N 35°27' E 139°40'  

Dump ship's entire track history